Time;durP1;ratioP1;P1;durP2;ratioP2;P2;SDS_P1;SDS_P2;PMS_P1;PMS_P2;Temp;Humidity;BMP_temperature;BMP_pressure;BME280_temperature;BME280_humidity;BME280_pressure;Samples;Min_cycle;Max_cycle;Signal;HPM_P1;HPM_P2
2023/11/22 00:00:16;;;;;;;;;;;;;;;;;;2208154;67;2019;-22
2023/11/22 00:02:47;;;;;;;;;;;;;;;;;;2206580;59;2381;-22
2023/11/22 00:05:17;;;;;;;;;;;;;;;;;;2206992;67;1831;-22
2023/11/22 00:07:47;;;;;;;;;;;;;;;;;;2206936;67;2524;-22
2023/11/22 00:10:18;;;;;;;;;;;;;;;;;;2206740;67;1873;-22
2023/11/22 00:12:48;;;;;;;;;;;;;;;;;;2206187;59;1739;-21
2023/11/22 00:15:18;;;;;;;;;;;;;;;;;;2206721;67;1894;-21
2023/11/22 00:17:48;;;;;;;;;;;;;;;;;;2209295;53;2507;-27
2023/11/22 00:20:20;;;;;;;;;;;;;;;;;;2212664;58;1998;-27
2023/11/22 00:22:51;;;;;;;;;;;;;;;;;;2209583;59;1853;-25
2023/11/22 00:25:21;;;;;;;;;;;;;;;;;;2209698;59;2047;-25
2023/11/22 00:27:52;;;;;;;;;;;;;;;;;;2206181;59;2599;-26
2023/11/22 00:30:23;;;;;;;;;;;;;;;;;;2205553;59;2177;-25
2023/11/22 00:32:53;;;;;;;;;;;;;;;;;;2204396;59;2277;-25
2023/11/22 00:35:23;;;;;;;;;;;;;;;;;;2205349;59;1844;-25
2023/11/22 00:37:53;;;;;;;;;;;;;;;;;;2204646;59;2389;-25
2023/11/22 00:40:24;;;;;;;;;;;;;;;;;;2204869;59;1932;-25
2023/11/22 00:42:54;;;;;;;;;;;;;;;;;;2204770;59;1890;-25
2023/11/22 00:45:25;;;;;;;;;;;;;;;;;;2206254;59;1759;-25
2023/11/22 00:47:55;;;;;;;;;;;;;;;;;;2205710;67;1863;-25
2023/11/22 00:50:26;;;;;;;;;;;;;;;;;;2205232;59;1772;-25
2023/11/22 00:52:56;;;;;;;;;;;;;;;;;;2204799;67;1895;-26
2023/11/22 00:55:26;;;;;;;;;;;;;;;;;;2204429;59;2238;-25
2023/11/22 00:58:03;;;;;;;;;;;;;;;;;;2203890;67;1886;-25
2023/11/22 01:00:33;;;;;;;;;;;;;;;;;;2203922;67;2049;-25
2023/11/22 01:03:04;;;;;;;;;;;;;;;;;;2204929;59;2394;-25
2023/11/22 01:05:35;;;;;;;;;;;;;;;;;;2204272;59;1694;-25
2023/11/22 01:08:05;;;;;;;;;;;;;;;;;;2205265;59;2069;-25
2023/11/22 01:10:35;;;;;;;;;;;;;;;;;;2203892;67;1940;-25
2023/11/22 01:13:06;;;;;;;;;;;;;;;;;;2203986;59;2111;-27
2023/11/22 01:15:36;;;;;;;;;;;;;;;;;;2203928;67;1766;-27
2023/11/22 01:18:06;;;;;;;;;;;;;;;;;;2205216;59;1631;-27
2023/11/22 01:20:36;;;;;;;;;;;;;;;;;;2204284;59;1987;-27
2023/11/22 01:23:07;;;;;;;;;;;;;;;;;;2205511;67;1950;-25
2023/11/22 01:25:37;;;;;;;;;;;;;;;;;;2203752;59;2359;-25
2023/11/22 01:28:07;;;;;;;;;;;;;;;;;;2205316;59;2196;-26
2023/11/22 01:30:38;;;;;;;;;;;;;;;;;;2204598;59;2378;-26
2023/11/22 01:33:09;;;;;;;;;;;;;;;;;;2206230;59;1842;-27
2023/11/22 01:35:41;;;;;;;;;;;;;;;;;;2202552;59;2122;-26
2023/11/22 01:38:11;;;;;;;;;;;;;;;;;;2206217;59;1711;-26
2023/11/22 01:40:48;;;;;;;;;;;;;;;;;;2205389;59;2014;-25
2023/11/22 01:43:23;;;;;;;;;;;;;;;;;;2203511;67;1971;-25
2023/11/22 01:45:54;;;;;;;;;;;;;;;;;;2205349;59;2060;-25
2023/11/22 01:48:26;;;;;;;;;;;;;;;;;;2205262;63;2747;-25
2023/11/22 01:50:56;;;;;;;;;;;;;;;;;;2204922;67;1860;-26
2023/11/22 01:53:27;;;;;;;;;;;;;;;;;;2202156;59;1723;-26
2023/11/22 01:55:58;;;;;;;;;;;;;;;;;;2205941;59;2192;-26
2023/11/22 01:58:29;;;;;;;;;;;;;;;;;;2204422;67;2770;-27
2023/11/22 02:01:00;;;;;;;;;;;;;;;;;;2205228;59;2389;-26
2023/11/22 02:03:31;;;;;;;;;;;;;;;;;;2205040;59;2065;-26
2023/11/22 02:06:01;;;;;;;;;;;;;;;;;;2204809;59;1993;-26
2023/11/22 02:08:32;;;;;;;;;;;;;;;;;;2204121;59;4679;-25
2023/11/22 02:11:05;;;;;;;;;;;;;;;;;;2200804;59;1830;-25
2023/11/22 02:13:37;;;;;;;;;;;;;;;;;;2205884;59;1882;-27
2023/11/22 02:16:07;;;;;;;;;;;;;;;;;;2204068;59;1920;-26
2023/11/22 02:18:39;;;;;;;;;;;;;;;;;;2204037;59;2326;-26
2023/11/22 02:21:10;;;;;;;;;;;;;;;;;;2204741;59;1941;-26
2023/11/22 02:23:42;;;;;;;;;;;;;;;;;;2203938;59;1973;-26
2023/11/22 02:26:12;;;;;;;;;;;;;;;;;;2205290;59;1658;-26
2023/11/22 02:28:42;;;;;;;;;;;;;;;;;;2204385;59;2421;-27
2023/11/22 02:31:12;;;;;;;;;;;;;;;;;;2204417;59;2745;-26
2023/11/22 02:33:43;;;;;;;;;;;;;;;;;;2204034;59;1862;-26
2023/11/22 02:36:14;;;;;;;;;;;;;;;;;;2204753;59;2022;-26
2023/11/22 02:38:45;;;;;;;;;;;;;;;;;;2201606;59;2209;-27
2023/11/22 02:41:16;;;;;;;;;;;;;;;;;;2204931;59;2023;-25
2023/11/22 02:43:47;;;;;;;;;;;;;;;;;;2202077;59;2273;-25
2023/11/22 02:46:17;;;;;;;;;;;;;;;;;;2204490;59;2428;-26
2023/11/22 02:48:48;;;;;;;;;;;;;;;;;;2203835;59;2670;-26
2023/11/22 02:51:18;;;;;;;;;;;;;;;;;;2205093;67;2314;-26
2023/11/22 02:53:49;;;;;;;;;;;;;;;;;;2204002;67;1793;-26
2023/11/22 02:56:21;;;;;;;;;;;;;;;;;;2204152;60;1575;-27
2023/11/22 02:58:53;;;;;;;;;;;;;;;;;;2204397;67;2154;-26
2023/11/22 03:01:26;;;;;;;;;;;;;;;;;;2201934;67;2237;-26
2023/11/22 03:03:56;;;;;;;;;;;;;;;;;;2204642;59;2414;-26
2023/11/22 03:06:31;;;;;;;;;;;;;;;;;;2204527;59;1678;-26
2023/11/22 03:09:02;;;;;;;;;;;;;;;;;;2203616;67;2195;-26
2023/11/22 03:11:32;;;;;;;;;;;;;;;;;;2204452;67;2466;-26
2023/11/22 03:14:03;;;;;;;;;;;;;;;;;;2204230;59;1821;-26
2023/11/22 03:16:34;;;;;;;;;;;;;;;;;;2204840;59;2015;-26
2023/11/22 03:19:06;;;;;;;;;;;;;;;;;;2200469;59;1710;-26
2023/11/22 03:21:37;;;;;;;;;;;;;;;;;;2204730;67;1941;-26
2023/11/22 03:24:08;;;;;;;;;;;;;;;;;;2204832;59;1847;-26
2023/11/22 03:26:39;;;;;;;;;;;;;;;;;;2204690;67;2054;-27
2023/11/22 03:29:10;;;;;;;;;;;;;;;;;;2204006;59;2256;-27
2023/11/22 03:31:40;;;;;;;;;;;;;;;;;;2204131;59;2741;-27
2023/11/22 03:34:10;;;;;;;;;;;;;;;;;;2204851;59;2205;-27
2023/11/22 03:36:41;;;;;;;;;;;;;;;;;;2205270;59;1842;-27
2023/11/22 03:39:11;;;;;;;;;;;;;;;;;;2204551;59;2278;-27
2023/11/22 03:41:42;;;;;;;;;;;;;;;;;;2205159;59;2026;-27
2023/11/22 03:44:12;;;;;;;;;;;;;;;;;;2205493;59;2282;-27
2023/11/22 03:46:42;;;;;;;;;;;;;;;;;;2205201;59;2616;-27
2023/11/22 03:49:14;;;;;;;;;;;;;;;;;;2204424;59;1936;-27
2023/11/22 03:51:44;;;;;;;;;;;;;;;;;;2204790;59;2123;-27
2023/11/22 03:54:14;;;;;;;;;;;;;;;;;;2205021;59;2285;-27
2023/11/22 03:56:44;;;;;;;;;;;;;;;;;;2201443;59;2105;-27
2023/11/22 03:59:15;;;;;;;;;;;;;;;;;;2202660;67;2514;-27
2023/11/22 04:01:45;;;;;;;;;;;;;;;;;;2203471;67;2727;-27
2023/11/22 04:04:16;;;;;;;;;;;;;;;;;;2202756;67;2577;-27
2023/11/22 04:06:47;;;;;;;;;;;;;;;;;;2204910;59;1927;-27
2023/11/22 04:09:17;;;;;;;;;;;;;;;;;;2203244;59;2538;-26
2023/11/22 04:11:47;;;;;;;;;;;;;;;;;;2201568;67;2066;-26
2023/11/22 04:14:20;;;;;;;;;;;;;;;;;;2204779;67;2024;-26
2023/11/22 04:16:50;;;;;;;;;;;;;;;;;;2203846;59;1517;-27
2023/11/22 04:19:21;;;;;;;;;;;;;;;;;;2203522;59;1785;-27
2023/11/22 04:21:51;;;;;;;;;;;;;;;;;;2204438;59;2034;-27
2023/11/22 04:24:21;;;;;;;;;;;;;;;;;;2204121;67;1879;-27
2023/11/22 04:26:51;;;;;;;;;;;;;;;;;;2203186;59;1785;-27
2023/11/22 04:29:21;;;;;;;;;;;;;;;;;;2204820;59;2335;-27
2023/11/22 04:31:52;;;;;;;;;;;;;;;;;;2204321;67;1946;-27
2023/11/22 04:34:22;;;;;;;;;;;;;;;;;;2205230;59;1777;-26
2023/11/22 04:36:52;;;;;;;;;;;;;;;;;;2204809;59;2569;-26
2023/11/22 04:39:23;;;;;;;;;;;;;;;;;;2204521;59;1810;-26
2023/11/22 04:41:53;;;;;;;;;;;;;;;;;;2204440;59;2109;-26
2023/11/22 04:44:23;;;;;;;;;;;;;;;;;;2205174;59;1552;-26
2023/11/22 04:46:54;;;;;;;;;;;;;;;;;;2204166;67;1908;-26
2023/11/22 04:49:24;;;;;;;;;;;;;;;;;;2204883;59;1863;-27
2023/11/22 04:51:55;;;;;;;;;;;;;;;;;;2203977;59;2317;-27
2023/11/22 04:54:25;;;;;;;;;;;;;;;;;;2205463;67;1539;-27
2023/11/22 04:56:55;;;;;;;;;;;;;;;;;;2204081;59;2101;-27
2023/11/22 04:59:25;;;;;;;;;;;;;;;;;;2205542;67;2427;-27
2023/11/22 05:01:56;;;;;;;;;;;;;;;;;;2205115;59;2136;-27
2023/11/22 05:04:26;;;;;;;;;;;;;;;;;;2206020;67;2860;-27
2023/11/22 05:06:58;;;;;;;;;;;;;;;;;;2204638;59;2522;-26
2023/11/22 05:09:30;;;;;;;;;;;;;;;;;;2205258;59;1759;-27
2023/11/22 05:12:03;;;;;;;;;;;;;;;;;;2205033;59;2212;-27
2023/11/22 05:14:34;;;;;;;;;;;;;;;;;;2207866;67;1805;-27
2023/11/22 05:17:05;;;;;;;;;;;;;;;;;;2206978;59;2919;-26
2023/11/22 05:19:35;;;;;;;;;;;;;;;;;;2205319;67;2235;-26
2023/11/22 05:22:06;;;;;;;;;;;;;;;;;;2206055;60;1961;-26
2023/11/22 05:24:38;;;;;;;;;;;;;;;;;;2207639;59;2552;-26
2023/11/22 05:27:09;;;;;;;;;;;;;;;;;;2204440;59;1889;-26
2023/11/22 05:29:40;;;;;;;;;;;;;;;;;;2205234;59;2463;-26
2023/11/22 05:32:11;;;;;;;;;;;;;;;;;;2200417;59;2092;-26
2023/11/22 05:34:41;;;;;;;;;;;;;;;;;;2204855;59;1824;-26
2023/11/22 05:37:12;;;;;;;;;;;;;;;;;;2203809;59;2391;-26
2023/11/22 05:39:42;;;;;;;;;;;;;;;;;;2205846;59;1911;-26
2023/11/22 05:42:13;;;;;;;;;;;;;;;;;;2206171;59;3119;-26
2023/11/22 05:44:43;;;;;;;;;;;;;;;;;;2205828;59;1916;-26
2023/11/22 05:47:13;;;;;;;;;;;;;;;;;;2205385;59;1941;-25
2023/11/22 05:49:43;;;;;;;;;;;;;;;;;;2205152;59;1852;-26
2023/11/22 05:52:14;;;;;;;;;;;;;;;;;;2204539;67;1990;-26
2023/11/22 05:54:44;;;;;;;;;;;;;;;;;;2204835;59;1625;-25
2023/11/22 05:57:15;;;;;;;;;;;;;;;;;;2203071;59;1773;-26
2023/11/22 05:59:46;;;;;;;;;;;;;;;;;;2204036;59;2281;-26
2023/11/22 06:02:16;;;;;;;;;;;;;;;;;;2203842;59;3380;-26
2023/11/22 06:04:47;;;;;;;;;;;;;;;;;;2203918;59;2279;-26
2023/11/22 06:07:17;;;;;;;;;;;;;;;;;;2204224;59;2106;-25
2023/11/22 06:09:47;;;;;;;;;;;;;;;;;;2202753;59;1914;-26
2023/11/22 06:12:19;;;;;;;;;;;;;;;;;;2202824;59;2482;-26
2023/11/22 06:14:49;;;;;;;;;;;;;;;;;;2202096;67;2342;-26
2023/11/22 06:17:19;;;;;;;;;;;;;;;;;;2201990;59;2533;-27
2023/11/22 06:19:49;;;;;;;;;;;;;;;;;;2204057;59;2687;-34
2023/11/22 06:22:21;;;;;;;;;;;;;;;;;;2203837;59;2438;-26
2023/11/22 06:24:51;;;;;;;;;;;;;;;;;;2204726;59;2182;-27
2023/11/22 06:27:21;;;;;;;;;;;;;;;;;;2203677;59;2063;-26
2023/11/22 06:29:52;;;;;;;;;;;;;;;;;;2204571;59;2359;-27
2023/11/22 06:32:22;;;;;;;;;;;;;;;;;;2202243;59;1851;-26
2023/11/22 06:34:52;;;;;;;;;;;;;;;;;;2204088;59;2589;-27
2023/11/22 06:37:22;;;;;;;;;;;;;;;;;;2204175;59;1928;-26
2023/11/22 06:39:52;;;;;;;;;;;;;;;;;;2202065;59;2412;-27
2023/11/22 06:42:23;;;;;;;;;;;;;;;;;;2203867;59;1977;-26
2023/11/22 06:44:53;;;;;;;;;;;;;;;;;;2203780;59;1774;-26
2023/11/22 06:47:23;;;;;;;;;;;;;;;;;;2204298;59;1838;-26
2023/11/22 06:49:54;;;;;;;;;;;;;;;;;;2203996;67;1893;-26
2023/11/22 06:52:24;;;;;;;;;;;;;;;;;;2203983;59;1795;-26
2023/11/22 06:54:54;;;;;;;;;;;;;;;;;;2204074;59;2436;-26
2023/11/22 06:57:28;;;;;;;;;;;;;;;;;;2204188;67;1592;-26
2023/11/22 07:00:00;;;;;;;;;;;;;;;;;;2204978;59;1958;-29
2023/11/22 07:02:31;;;;;;;;;;;;;;;;;;2207389;59;2039;-26
2023/11/22 07:05:08;;;;;;;;;;;;;;;;;;2204063;67;1227;-26
2023/11/22 07:07:38;;;;;;;;;;;;;;;;;;2202829;67;1352;-26
2023/11/22 07:10:11;;;;;;;;;;;;;;;;;;2203671;67;1141;-26
2023/11/22 07:12:43;;;;;;;;;;;;;;;;;;2200725;59;2120;-26
2023/11/22 07:15:13;;;;;;;;;;;;;;;;;;2201863;59;2402;-26
2023/11/22 07:17:45;;;;;;;;;;;;;;;;;;2204071;59;2095;-26
2023/11/22 07:20:17;;;;;;;;;;;;;;;;;;2203983;67;1943;-26
2023/11/22 07:22:54;;;;;;;;;;;;;;;;;;2203282;59;2135;-26
2023/11/22 07:25:24;;;;;;;;;;;;;;;;;;2203134;67;1313;-26
2023/11/22 07:27:55;;;;;;;;;;;;;;;;;;2203410;59;2035;-26
2023/11/22 07:30:29;;;;;;;;;;;;;;;;;;2204096;59;2315;-26
2023/11/22 07:33:00;;;;;;;;;;;;;;;;;;2203280;59;1428;-26
2023/11/22 07:35:31;;;;;;;;;;;;;;;;;;2203821;59;2235;-26
2023/11/22 07:38:03;;;;;;;;;;;;;;;;;;2203212;67;1741;-26
2023/11/22 07:40:34;;;;;;;;;;;;;;;;;;2203506;59;2025;-26
2023/11/22 07:43:04;;;;;;;;;;;;;;;;;;2203627;67;1343;-26
2023/11/22 07:45:35;;;;;;;;;;;;;;;;;;2202589;59;2196;-26
2023/11/22 07:48:05;;;;;;;;;;;;;;;;;;2203120;67;1364;-26
2023/11/22 07:50:37;;;;;;;;;;;;;;;;;;2203739;67;1368;-26
2023/11/22 07:53:08;;;;;;;;;;;;;;;;;;2201455;59;1443;-26
2023/11/22 07:55:39;;;;;;;;;;;;;;;;;;2203629;59;2058;-26
2023/11/22 07:58:10;;;;;;;;;;;;;;;;;;2204125;67;1232;-26
2023/11/22 08:00:42;;;;;;;;;;;;;;;;;;2203248;59;2020;-26
2023/11/22 08:03:15;;;;;;;;;;;;;;;;;;2203130;67;2390;-25
2023/11/22 08:05:48;;;;;;;;;;;;;;;;;;2203086;59;1905;-25
2023/11/22 08:08:18;;;;;;;;;;;;;;;;;;2203089;67;2794;-24
2023/11/22 08:10:51;;;;;;;;;;;;;;;;;;2204015;67;1203;-25
2023/11/22 08:13:25;;;;;;;;;;;;;;;;;;2203899;59;1425;-23
2023/11/22 08:15:55;;;;;;;;;;;;;;;;;;2203785;67;1733;-24
2023/11/22 08:18:27;;;;;;;;;;;;;;;;;;2203673;59;1595;-24
2023/11/22 08:20:58;;;;;;;;;;;;;;;;;;2204524;67;1941;-24
2023/11/22 08:23:28;;;;;;;;;;;;;;;;;;2204493;67;1859;-24
2023/11/22 08:25:59;;;;;;;;;;;;;;;;;;2202033;67;2137;-24
2023/11/22 08:28:29;;;;;;;;;;;;;;;;;;2204537;59;2067;-24
2023/11/22 08:31:00;;;;;;;;;;;;;;;;;;2204239;59;2648;-24
2023/11/22 08:33:31;;;;;;;;;;;;;;;;;;2205064;59;1568;-24
2023/11/22 08:36:02;;;;;;;;;;;;;;;;;;2203657;59;1265;-24
2023/11/22 08:38:33;;;;;;;;;;;;;;;;;;2203135;59;2640;-24
2023/11/22 08:41:05;;;;;;;;;;;;;;;;;;2201569;59;2764;-24
2023/11/22 08:43:35;;;;;;;;;;;;;;;;;;2202448;59;2841;-24
2023/11/22 08:46:06;;;;;;;;;;;;;;;;;;2202530;67;2807;-24
2023/11/22 08:48:37;;;;;;;;;;;;;;;;;;2203665;67;2747;-24
2023/11/22 08:51:07;;;;;;;;;;;;;;;;;;2201714;59;3265;-24
2023/11/22 08:53:38;;;;;;;;;;;;;;;;;;2202957;59;2883;-24
2023/11/22 08:56:08;;;;;;;;;;;;;;;;;;2202491;59;1750;-24
2023/11/22 08:58:39;;;;;;;;;;;;;;;;;;2203408;59;3023;-23
2023/11/22 09:01:10;;;;;;;;;;;;;;;;;;2201872;59;2784;-24
2023/11/22 09:03:41;;;;;;;;;;;;;;;;;;2204348;67;2605;-23
2023/11/22 09:06:11;;;;;;;;;;;;;;;;;;2203829;59;3167;-26
2023/11/22 09:08:41;;;;;;;;;;;;;;;;;;2203893;59;2795;-24
2023/11/22 09:11:11;;;;;;;;;;;;;;;;;;2201101;59;2562;-23
2023/11/22 09:13:42;;;;;;;;;;;;;;;;;;2202260;59;3868;-26
2023/11/22 09:16:12;;;;;;;;;;;;;;;;;;2198132;59;2633;-24
2023/11/22 09:18:42;;;;;;;;;;;;;;;;;;2204814;67;2495;-24
2023/11/22 09:21:13;;;;;;;;;;;;;;;;;;2204121;67;2410;-24
2023/11/22 09:23:44;;;;;;;;;;;;;;;;;;2204754;67;1876;-23
2023/11/22 09:26:14;;;;;;;;;;;;;;;;;;2204400;59;2094;-23
2023/11/22 09:28:44;;;;;;;;;;;;;;;;;;2204583;59;2178;-24
2023/11/22 09:31:18;;;;;;;;;;;;;;;;;;2204122;59;1887;-24
2023/11/22 09:33:48;;;;;;;;;;;;;;;;;;2205286;59;2005;-23
2023/11/22 09:36:18;;;;;;;;;;;;;;;;;;2203607;59;2027;-25
2023/11/22 09:38:48;;;;;;;;;;;;;;;;;;2205100;59;1874;-24
2023/11/22 09:41:19;;;;;;;;;;;;;;;;;;2203759;59;2762;-24
2023/11/22 09:43:49;;;;;;;;;;;;;;;;;;2205337;59;1857;-24
2023/11/22 09:46:23;;;;;;;;;;;;;;;;;;2204018;67;1850;-24
2023/11/22 09:48:55;;;;;;;;;;;;;;;;;;2203970;67;1829;-23
2023/11/22 09:51:32;;;;;;;;;;;;;;;;;;2203898;67;1746;-24
2023/11/22 09:54:09;;;;;;;;;;;;;;;;;;2204151;67;2253;-24
2023/11/22 09:56:40;;;;;;;;;;;;;;;;;;2204420;59;2070;-23
2023/11/22 09:59:12;;;;;;;;;;;;;;;;;;2200235;59;2480;-24
2023/11/22 10:01:42;;;;;;;;;;;;;;;;;;2204852;67;1983;-23
2023/11/22 10:04:13;;;;;;;;;;;;;;;;;;2204012;67;2371;-23
2023/11/22 10:06:46;;;;;;;;;;;;;;;;;;2204084;67;2025;-23
2023/11/22 10:09:17;;;;;;;;;;;;;;;;;;2201359;67;2447;-24
2023/11/22 10:11:50;;;;;;;;;;;;;;;;;;2203209;59;2805;-24
2023/11/22 10:14:26;;;;;;;;;;;;;;;;;;2202182;59;2695;-23
2023/11/22 10:17:00;;;;;;;;;;;;;;;;;;2200803;59;2735;-23
2023/11/22 10:19:31;;;;;;;;;;;;;;;;;;2202999;59;2638;-23
2023/11/22 10:22:05;;;;;;;;;;;;;;;;;;2204005;67;3193;-23
2023/11/22 10:24:36;;;;;;;;;;;;;;;;;;2204222;59;2652;-23
2023/11/22 10:27:06;;;;;;;;;;;;;;;;;;2203518;59;3634;-23
2023/11/22 10:29:36;;;;;;;;;;;;;;;;;;2202988;59;2774;-23
2023/11/22 10:32:07;;;;;;;;;;;;;;;;;;2203858;59;1794;-23
2023/11/22 10:34:38;;;;;;;;;;;;;;;;;;2203311;59;2576;-24
2023/11/22 10:37:09;;;;;;;;;;;;;;;;;;2202766;59;2327;-24
2023/11/22 10:39:39;;;;;;;;;;;;;;;;;;2204936;59;2501;-24
2023/11/22 10:42:10;;;;;;;;;;;;;;;;;;2204041;59;2075;-23
2023/11/22 10:44:41;;;;;;;;;;;;;;;;;;2203930;59;2321;-23
2023/11/22 10:47:13;;;;;;;;;;;;;;;;;;2202671;59;2354;-23
2023/11/22 10:49:43;;;;;;;;;;;;;;;;;;2204152;59;2191;-24
2023/11/22 10:52:14;;;;;;;;;;;;;;;;;;2203393;59;2500;-23
2023/11/22 10:54:49;;;;;;;;;;;;;;;;;;2199930;67;1876;-24
2023/11/22 10:57:21;;;;;;;;;;;;;;;;;;2204101;59;2168;-23
2023/11/22 10:59:54;;;;;;;;;;;;;;;;;;2203389;59;3347;-23
2023/11/22 11:02:24;;;;;;;;;;;;;;;;;;2203695;59;2292;-24
2023/11/22 11:04:59;;;;;;;;;;;;;;;;;;2204039;59;2149;-24
2023/11/22 11:07:30;;;;;;;;;;;;;;;;;;2203357;67;2309;-24
2023/11/22 11:10:01;;;;;;;;;;;;;;;;;;2204784;59;1792;-24
2023/11/22 11:12:31;;;;;;;;;;;;;;;;;;2203965;67;2032;-24
2023/11/22 11:15:01;;;;;;;;;;;;;;;;;;2203924;59;2132;-24
2023/11/22 11:17:32;;;;;;;;;;;;;;;;;;2202055;59;2503;-23
2023/11/22 11:20:10;;;;;;;;;;;;;;;;;;2204377;67;2127;-24
2023/11/22 11:22:41;;;;;;;;;;;;;;;;;;2204740;59;1908;-24
2023/11/22 11:25:14;;;;;;;;;;;;;;;;;;2204013;59;1789;-23
2023/11/22 11:27:54;;;;;;;;;;;;;;;;;;2203367;59;2448;-23
2023/11/22 11:30:44;;;;;;;;;;;;;;;;;;2203046;59;2431;-23
2023/11/22 11:33:17;;;;;;;;;;;;;;;;;;2204200;59;1793;-23
2023/11/22 11:35:50;;;;;;;;;;;;;;;;;;2204391;59;2398;-24
2023/11/22 11:38:21;;;;;;;;;;;;;;;;;;2201797;59;2390;-24
2023/11/22 11:40:54;;;;;;;;;;;;;;;;;;2204487;59;2178;-24
2023/11/22 11:43:51;;;;;;;;;;;;;;;;;;2203544;67;1951;-24
2023/11/22 11:46:22;;;;;;;;;;;;;;;;;;2202869;67;2151;-24
2023/11/22 11:48:53;;;;;;;;;;;;;;;;;;2204389;67;1646;-24
2023/11/22 11:51:25;;;;;;;;;;;;;;;;;;2204115;59;1903;-23
2023/11/22 11:53:55;;;;;;;;;;;;;;;;;;2204501;67;1761;-23
2023/11/22 11:56:29;;;;;;;;;;;;;;;;;;2204533;67;1809;-23
2023/11/22 11:59:01;;;;;;;;;;;;;;;;;;2204632;59;2175;-23
2023/11/22 12:01:32;;;;;;;;;;;;;;;;;;2204309;67;2026;-23
2023/11/22 12:04:02;;;;;;;;;;;;;;;;;;2205105;59;2585;-23
2023/11/22 12:06:36;;;;;;;;;;;;;;;;;;2200502;59;3474;-23
2023/11/22 12:09:07;;;;;;;;;;;;;;;;;;2205972;59;1708;-23
2023/11/22 12:11:39;;;;;;;;;;;;;;;;;;2205743;67;3096;-23
2023/11/22 12:14:10;;;;;;;;;;;;;;;;;;2204035;59;2953;-23
2023/11/22 12:16:42;;;;;;;;;;;;;;;;;;2209998;53;2078;-20
2023/11/22 12:19:20;;;;;;;;;;;;;;;;;;2206845;59;2621;-20
2023/11/22 12:21:51;;;;;;;;;;;;;;;;;;2205367;66;1949;-20
2023/11/22 12:24:21;;;;;;;;;;;;;;;;;;2207689;66;3086;-20
2023/11/22 12:26:51;;;;;;;;;;;;;;;;;;2209035;59;2516;-20
2023/11/22 12:29:23;;;;;;;;;;;;;;;;;;2204906;59;2661;-20
2023/11/22 12:31:55;;;;;;;;;;;;;;;;;;2202853;59;2033;-20
2023/11/22 12:34:26;;;;;;;;;;;;;;;;;;2205989;59;2175;-20
2023/11/22 12:36:56;;;;;;;;;;;;;;;;;;2206032;59;2039;-20
2023/11/22 12:39:27;;;;;;;;;;;;;;;;;;2205429;59;2319;-20
2023/11/22 12:41:57;;;;;;;;;;;;;;;;;;2205443;59;1934;-20
2023/11/22 12:44:28;;;;;;;;;;;;;;;;;;2205569;59;1882;-21
2023/11/22 12:46:58;;;;;;;;;;;;;;;;;;2205657;67;2112;-20
2023/11/22 12:49:29;;;;;;;;;;;;;;;;;;2205294;63;2009;-21
2023/11/22 12:51:59;;;;;;;;;;;;;;;;;;2206326;59;2188;-20
2023/11/22 12:54:32;;;;;;;;;;;;;;;;;;2205380;67;1649;-20
2023/11/22 12:57:03;;;;;;;;;;;;;;;;;;2205984;67;2184;-20
2023/11/22 12:59:33;;;;;;;;;;;;;;;;;;2205443;61;2012;-20
2023/11/22 13:02:05;;;;;;;;;;;;;;;;;;2206339;59;2315;-20
2023/11/22 13:04:35;;;;;;;;;;;;;;;;;;2204338;63;2502;-20
2023/11/22 13:07:06;;;;;;;;;;;;;;;;;;2205718;67;1782;-20
2023/11/22 13:09:36;;;;;;;;;;;;;;;;;;2204876;67;2005;-20
2023/11/22 13:12:06;;;;;;;;;;;;;;;;;;2206360;67;2400;-20
2023/11/22 13:14:38;;;;;;;;;;;;;;;;;;2203955;59;2243;-20
2023/11/22 13:17:10;;;;;;;;;;;;;;;;;;2204938;59;2341;-20
2023/11/22 13:19:43;;;;;;;;;;;;;;;;;;2204405;67;2478;-20
2023/11/22 13:22:13;;;;;;;;;;;;;;;;;;2205817;67;1955;-20
2023/11/22 13:24:43;;;;;;;;;;;;;;;;;;2201297;67;2764;-20
2023/11/22 13:27:14;;;;;;;;;;;;;;;;;;2204649;59;2626;-20
2023/11/22 13:29:44;;;;;;;;;;;;;;;;;;2205207;59;2306;-20
2023/11/22 13:32:14;;;;;;;;;;;;;;;;;;2206440;59;1654;-20
2023/11/22 13:34:44;;;;;;;;;;;;;;;;;;2205154;59;1911;-21
2023/11/22 13:37:15;;;;;;;;;;;;;;;;;;2206031;59;1608;-20
2023/11/22 13:39:46;;;;;;;;;;;;;;;;;;2204766;59;1459;-20
2023/11/22 13:42:16;;;;;;;;;;;;;;;;;;2205380;59;1933;-20
2023/11/22 13:44:47;;;;;;;;;;;;;;;;;;2204738;59;2174;-20
2023/11/22 13:47:17;;;;;;;;;;;;;;;;;;2205440;67;1637;-20
2023/11/22 13:49:47;;;;;;;;;;;;;;;;;;2204362;67;2274;-20
2023/11/22 13:52:17;;;;;;;;;;;;;;;;;;2205830;59;1172;-20
2023/11/22 13:54:47;;;;;;;;;;;;;;;;;;2204551;67;2353;-20
2023/11/22 13:57:18;;;;;;;;;;;;;;;;;;2205463;67;1269;-20
2023/11/22 13:59:48;;;;;;;;;;;;;;;;;;2204339;59;2132;-20
2023/11/22 14:02:18;;;;;;;;;;;;;;;;;;2205906;67;2366;-20
2023/11/22 14:04:48;;;;;;;;;;;;;;;;;;2205127;59;2112;-20
2023/11/22 14:07:19;;;;;;;;;;;;;;;;;;2206655;59;2087;-20
2023/11/22 14:09:50;;;;;;;;;;;;;;;;;;2205229;59;2125;-20
2023/11/22 14:12:20;;;;;;;;;;;;;;;;;;2203817;67;1363;-35
2023/11/22 14:14:51;;;;;;;;;;;;;;;;;;2203458;67;2522;-20
2023/11/22 14:17:21;;;;;;;;;;;;;;;;;;2204152;59;1209;-20
2023/11/22 14:19:52;;;;;;;;;;;;;;;;;;2204766;67;1623;-20
2023/11/22 14:22:23;;;;;;;;;;;;;;;;;;2204672;67;1958;-20
2023/11/22 14:24:53;;;;;;;;;;;;;;;;;;2202143;67;3048;-20
2023/11/22 14:27:24;;;;;;;;;;;;;;;;;;2203067;59;2774;-20
2023/11/22 14:29:54;;;;;;;;;;;;;;;;;;2205456;67;2649;-20
2023/11/22 14:32:24;;;;;;;;;;;;;;;;;;2204608;59;2341;-20
2023/11/22 14:34:55;;;;;;;;;;;;;;;;;;2206019;67;1993;-20
2023/11/22 14:37:25;;;;;;;;;;;;;;;;;;2204971;59;1955;-20
2023/11/22 14:39:59;;;;;;;;;;;;;;;;;;2206109;59;2043;-20
2023/11/22 14:42:29;;;;;;;;;;;;;;;;;;2204660;67;1986;-20
2023/11/22 14:45:00;;;;;;;;;;;;;;;;;;2205661;59;2632;-20
2023/11/22 14:47:35;;;;;;;;;;;;;;;;;;2204792;67;2136;-21
2023/11/22 14:50:07;;;;;;;;;;;;;;;;;;2206149;67;1898;-20
2023/11/22 14:52:38;;;;;;;;;;;;;;;;;;2204967;67;1818;-20
2023/11/22 14:55:11;;;;;;;;;;;;;;;;;;2205666;59;2160;-20
2023/11/22 14:57:42;;;;;;;;;;;;;;;;;;2202413;59;3844;-20
2023/11/22 15:00:13;;;;;;;;;;;;;;;;;;2203680;59;2079;-20
2023/11/22 15:02:47;;;;;;;;;;;;;;;;;;2203682;59;2399;-20
2023/11/22 15:05:18;;;;;;;;;;;;;;;;;;2204579;67;2452;-20
2023/11/22 15:07:54;;;;;;;;;;;;;;;;;;2204547;67;2005;-20
2023/11/22 15:10:25;;;;;;;;;;;;;;;;;;2203952;59;2027;-20
2023/11/22 15:12:57;;;;;;;;;;;;;;;;;;2204749;59;1839;-20
2023/11/22 15:15:27;;;;;;;;;;;;;;;;;;2204056;67;1911;-20
2023/11/22 15:17:57;;;;;;;;;;;;;;;;;;2203891;59;2295;-20
2023/11/22 15:20:27;;;;;;;;;;;;;;;;;;2203354;59;2250;-20
2023/11/22 15:22:58;;;;;;;;;;;;;;;;;;2205564;59;1789;-20
2023/11/22 15:25:29;;;;;;;;;;;;;;;;;;2204103;67;2050;-20
2023/11/22 15:28:00;;;;;;;;;;;;;;;;;;2203835;59;2562;-20
2023/11/22 15:30:30;;;;;;;;;;;;;;;;;;2204959;59;2510;-20
2023/11/22 15:33:01;;;;;;;;;;;;;;;;;;2205319;59;1800;-20
2023/11/22 15:35:32;;;;;;;;;;;;;;;;;;2204037;59;2596;-20
2023/11/22 15:38:02;;;;;;;;;;;;;;;;;;2205485;67;1720;-20
2023/11/22 15:40:32;;;;;;;;;;;;;;;;;;2204004;59;2123;-20
2023/11/22 15:43:03;;;;;;;;;;;;;;;;;;2206375;67;1989;-20
2023/11/22 15:45:33;;;;;;;;;;;;;;;;;;2204407;59;2507;-20
2023/11/22 15:48:03;;;;;;;;;;;;;;;;;;2204499;67;2432;-20
2023/11/22 15:50:34;;;;;;;;;;;;;;;;;;2204667;67;1912;-20
2023/11/22 15:53:04;;;;;;;;;;;;;;;;;;2205327;67;1862;-20
2023/11/22 15:55:34;;;;;;;;;;;;;;;;;;2204236;67;2279;-20
2023/11/22 15:58:04;;;;;;;;;;;;;;;;;;2205883;67;1886;-20
2023/11/22 16:00:35;;;;;;;;;;;;;;;;;;2204736;67;2299;-20
2023/11/22 16:03:11;;;;;;;;;;;;;;;;;;2205584;67;2321;-20
2023/11/22 16:05:42;;;;;;;;;;;;;;;;;;2203981;67;2517;-20
2023/11/22 16:08:12;;;;;;;;;;;;;;;;;;2205262;59;2319;-20
2023/11/22 16:10:44;;;;;;;;;;;;;;;;;;2204147;67;2443;-20
2023/11/22 16:13:14;;;;;;;;;;;;;;;;;;2205147;59;2684;-20
2023/11/22 16:15:46;;;;;;;;;;;;;;;;;;2204208;67;2501;-20
2023/11/22 16:18:17;;;;;;;;;;;;;;;;;;2205582;59;2083;-20
2023/11/22 16:20:47;;;;;;;;;;;;;;;;;;2204648;67;2264;-20
2023/11/22 16:23:17;;;;;;;;;;;;;;;;;;2205394;67;1896;-20
2023/11/22 16:25:49;;;;;;;;;;;;;;;;;;2204069;67;2385;-20
2023/11/22 16:28:20;;;;;;;;;;;;;;;;;;2204514;59;2720;-20
2023/11/22 16:30:50;;;;;;;;;;;;;;;;;;2204479;67;2630;-20
2023/11/22 16:33:21;;;;;;;;;;;;;;;;;;2204766;59;1869;-20
2023/11/22 16:35:52;;;;;;;;;;;;;;;;;;2204209;59;2702;-20
2023/11/22 16:38:23;;;;;;;;;;;;;;;;;;2204478;67;2228;-20
2023/11/22 16:40:53;;;;;;;;;;;;;;;;;;2203550;59;2136;-20
2023/11/22 16:43:23;;;;;;;;;;;;;;;;;;2205840;67;2266;-20
2023/11/22 16:45:54;;;;;;;;;;;;;;;;;;2205002;67;2761;-20
2023/11/22 16:48:24;;;;;;;;;;;;;;;;;;2204727;67;1809;-20
2023/11/22 16:50:54;;;;;;;;;;;;;;;;;;2204824;67;2350;-20
2023/11/22 16:53:24;;;;;;;;;;;;;;;;;;2205583;59;2149;-20
2023/11/22 16:55:54;;;;;;;;;;;;;;;;;;2204334;67;2661;-20
2023/11/22 16:58:25;;;;;;;;;;;;;;;;;;2205525;67;2131;-20
2023/11/22 17:00:56;;;;;;;;;;;;;;;;;;2204645;67;1996;-20
2023/11/22 17:03:27;;;;;;;;;;;;;;;;;;2205485;59;2390;-20
2023/11/22 17:05:57;;;;;;;;;;;;;;;;;;2204094;67;1925;-20
2023/11/22 17:08:27;;;;;;;;;;;;;;;;;;2205057;59;2743;-20
2023/11/22 17:10:57;;;;;;;;;;;;;;;;;;2203806;59;2305;-20
2023/11/22 17:13:28;;;;;;;;;;;;;;;;;;2206412;59;2695;-20
2023/11/22 17:15:58;;;;;;;;;;;;;;;;;;2203414;59;2242;-20
2023/11/22 17:18:28;;;;;;;;;;;;;;;;;;2205181;59;2273;-20
2023/11/22 17:20:58;;;;;;;;;;;;;;;;;;2205046;67;2267;-20
2023/11/22 17:23:29;;;;;;;;;;;;;;;;;;2205197;67;2221;-20
2023/11/22 17:25:59;;;;;;;;;;;;;;;;;;2204687;59;2211;-20
2023/11/22 17:28:29;;;;;;;;;;;;;;;;;;2203777;59;2430;-20